sensor_id;sensor_type;location;lat;lon;timestamp;P1;durP1;ratioP1;P2;durP2;ratioP2
66927;SDS011;59882;45.624;11.698;2023-08-17T00:00:29;23.63;;;21.23;;
66927;SDS011;59882;45.624;11.698;2023-08-17T00:02:55;25.45;;;22.60;;
66927;SDS011;59882;45.624;11.698;2023-08-17T00:05:20;26.47;;;23.93;;
66927;SDS011;59882;45.624;11.698;2023-08-17T00:07:46;26.85;;;24.25;;
66927;SDS011;59882;45.624;11.698;2023-08-17T00:10:11;27.83;;;24.10;;
66927;SDS011;59882;45.624;11.698;2023-08-17T00:12:37;28.13;;;23.85;;
66927;SDS011;59882;45.624;11.698;2023-08-17T00:15:03;28.00;;;25.17;;
66927;SDS011;59882;45.624;11.698;2023-08-17T00:17:29;26.75;;;24.05;;
66927;SDS011;59882;45.624;11.698;2023-08-17T00:19:55;24.63;;;22.27;;
66927;SDS011;59882;45.624;11.698;2023-08-17T00:22:20;24.80;;;22.40;;
66927;SDS011;59882;45.624;11.698;2023-08-17T00:24:46;28.20;;;25.30;;
66927;SDS011;59882;45.624;11.698;2023-08-17T00:27:12;28.05;;;25.20;;
66927;SDS011;59882;45.624;11.698;2023-08-17T00:29:37;29.77;;;24.83;;
66927;SDS011;59882;45.624;11.698;2023-08-17T00:32:03;26.05;;;23.52;;
66927;SDS011;59882;45.624;11.698;2023-08-17T00:34:29;29.67;;;24.63;;
66927;SDS011;59882;45.624;11.698;2023-08-17T00:36:54;21.70;;;19.58;;
66927;SDS011;59882;45.624;11.698;2023-08-17T00:39:20;28.10;;;25.47;;
66927;SDS011;59882;45.624;11.698;2023-08-17T00:41:46;29.23;;;26.33;;
66927;SDS011;59882;45.624;11.698;2023-08-17T00:44:11;27.47;;;24.50;;
66927;SDS011;59882;45.624;11.698;2023-08-17T00:46:37;26.77;;;23.90;;
66927;SDS011;59882;45.624;11.698;2023-08-17T00:49:03;26.02;;;23.40;;
66927;SDS011;59882;45.624;11.698;2023-08-17T00:51:30;26.83;;;24.05;;
66927;SDS011;59882;45.624;11.698;2023-08-17T00:53:57;24.42;;;22.00;;
66927;SDS011;59882;45.624;11.698;2023-08-17T00:56:24;25.52;;;23.00;;
66927;SDS011;59882;45.624;11.698;2023-08-17T00:58:51;24.47;;;21.97;;
66927;SDS011;59882;45.624;11.698;2023-08-17T01:01:17;25.67;;;23.00;;
66927;SDS011;59882;45.624;11.698;2023-08-17T01:03:44;25.45;;;22.90;;
66927;SDS011;59882;45.624;11.698;2023-08-17T01:06:10;27.37;;;24.57;;
66927;SDS011;59882;45.624;11.698;2023-08-17T01:08:36;27.23;;;24.58;;
66927;SDS011;59882;45.624;11.698;2023-08-17T01:11:22;25.45;;;22.73;;
66927;SDS011;59882;45.624;11.698;2023-08-17T01:16:22;24.37;;;21.47;;
66927;SDS011;59882;45.624;11.698;2023-08-17T01:18:52;23.90;;;21.48;;
66927;SDS011;59882;45.624;11.698;2023-08-17T01:21:21;27.80;;;25.00;;
66927;SDS011;59882;45.624;11.698;2023-08-17T01:23:49;27.25;;;23.80;;
66927;SDS011;59882;45.624;11.698;2023-08-17T01:26:15;31.88;;;26.45;;
66927;SDS011;59882;45.624;11.698;2023-08-17T01:28:42;28.10;;;25.20;;
66927;SDS011;59882;45.624;11.698;2023-08-17T01:34:14;25.48;;;22.75;;
66927;SDS011;59882;45.624;11.698;2023-08-17T01:36:45;25.13;;;22.63;;
66927;SDS011;59882;45.624;11.698;2023-08-17T01:39:22;23.13;;;20.85;;
66927;SDS011;59882;45.624;11.698;2023-08-17T01:41:52;24.13;;;21.80;;
66927;SDS011;59882;45.624;11.698;2023-08-17T01:44:20;23.08;;;20.88;;
66927;SDS011;59882;45.624;11.698;2023-08-17T01:46:46;23.55;;;21.35;;
66927;SDS011;59882;45.624;11.698;2023-08-17T01:49:12;24.00;;;21.50;;
66927;SDS011;59882;45.624;11.698;2023-08-17T01:51:38;23.67;;;21.48;;
66927;SDS011;59882;45.624;11.698;2023-08-17T01:54:03;26.23;;;23.47;;
66927;SDS011;59882;45.624;11.698;2023-08-17T01:56:29;24.40;;;21.08;;
66927;SDS011;59882;45.624;11.698;2023-08-17T01:58:54;28.47;;;25.30;;
66927;SDS011;59882;45.624;11.698;2023-08-17T02:01:20;24.93;;;22.43;;
66927;SDS011;59882;45.624;11.698;2023-08-17T02:03:46;25.05;;;22.55;;
66927;SDS011;59882;45.624;11.698;2023-08-17T02:06:11;24.67;;;22.17;;
66927;SDS011;59882;45.624;11.698;2023-08-17T02:08:37;26.25;;;23.58;;
66927;SDS011;59882;45.624;11.698;2023-08-17T02:11:03;24.53;;;22.00;;
66927;SDS011;59882;45.624;11.698;2023-08-17T02:13:29;25.77;;;23.17;;
66927;SDS011;59882;45.624;11.698;2023-08-17T02:15:54;24.63;;;22.10;;
66927;SDS011;59882;45.624;11.698;2023-08-17T02:18:20;26.02;;;23.45;;
66927;SDS011;59882;45.624;11.698;2023-08-17T02:20:46;23.17;;;20.33;;
66927;SDS011;59882;45.624;11.698;2023-08-17T02:23:11;21.90;;;19.55;;
66927;SDS011;59882;45.624;11.698;2023-08-17T02:25:38;23.17;;;20.83;;
66927;SDS011;59882;45.624;11.698;2023-08-17T02:28:04;22.85;;;20.42;;
66927;SDS011;59882;45.624;11.698;2023-08-17T02:30:30;24.70;;;22.25;;
66927;SDS011;59882;45.624;11.698;2023-08-17T02:32:55;25.00;;;22.50;;
66927;SDS011;59882;45.624;11.698;2023-08-17T02:35:21;24.20;;;21.87;;
66927;SDS011;59882;45.624;11.698;2023-08-17T02:37:47;24.38;;;21.98;;
66927;SDS011;59882;45.624;11.698;2023-08-17T02:40:12;24.37;;;21.27;;
66927;SDS011;59882;45.624;11.698;2023-08-17T02:42:38;25.52;;;23.08;;
66927;SDS011;59882;45.624;11.698;2023-08-17T02:45:05;23.10;;;20.80;;
66927;SDS011;59882;45.624;11.698;2023-08-17T02:47:31;23.00;;;20.57;;
66927;SDS011;59882;45.624;11.698;2023-08-17T02:49:57;21.33;;;18.55;;
66927;SDS011;59882;45.624;11.698;2023-08-17T02:52:23;22.17;;;19.93;;
66927;SDS011;59882;45.624;11.698;2023-08-17T02:54:48;22.58;;;20.13;;
66927;SDS011;59882;45.624;11.698;2023-08-17T02:57:14;20.47;;;18.37;;
66927;SDS011;59882;45.624;11.698;2023-08-17T02:59:39;20.52;;;18.52;;
66927;SDS011;59882;45.624;11.698;2023-08-17T03:02:05;20.10;;;18.07;;
66927;SDS011;59882;45.624;11.698;2023-08-17T03:04:30;17.53;;;15.73;;
66927;SDS011;59882;45.624;11.698;2023-08-17T03:06:57;18.02;;;16.10;;
66927;SDS011;59882;45.624;11.698;2023-08-17T03:09:23;16.67;;;14.68;;
66927;SDS011;59882;45.624;11.698;2023-08-17T03:11:48;18.47;;;15.60;;
66927;SDS011;59882;45.624;11.698;2023-08-17T03:14:14;16.87;;;14.27;;
66927;SDS011;59882;45.624;11.698;2023-08-17T03:16:40;18.02;;;14.90;;
66927;SDS011;59882;45.624;11.698;2023-08-17T03:19:05;18.63;;;14.60;;
66927;SDS011;59882;45.624;11.698;2023-08-17T03:21:33;18.02;;;15.80;;
66927;SDS011;59882;45.624;11.698;2023-08-17T03:23:59;16.90;;;14.13;;
66927;SDS011;59882;45.624;11.698;2023-08-17T03:26:24;16.53;;;14.77;;
66927;SDS011;59882;45.624;11.698;2023-08-17T03:28:50;17.38;;;15.68;;
66927;SDS011;59882;45.624;11.698;2023-08-17T03:31:15;17.20;;;14.57;;
66927;SDS011;59882;45.624;11.698;2023-08-17T03:33:41;15.80;;;13.53;;
66927;SDS011;59882;45.624;11.698;2023-08-17T03:36:07;15.88;;;14.18;;
66927;SDS011;59882;45.624;11.698;2023-08-17T03:38:32;16.17;;;14.53;;
66927;SDS011;59882;45.624;11.698;2023-08-17T03:40:58;19.85;;;18.02;;
66927;SDS011;59882;45.624;11.698;2023-08-17T03:43:23;19.40;;;17.40;;
66927;SDS011;59882;45.624;11.698;2023-08-17T03:45:51;21.40;;;19.10;;
66927;SDS011;59882;45.624;11.698;2023-08-17T03:48:16;22.63;;;19.07;;
66927;SDS011;59882;45.624;11.698;2023-08-17T03:50:42;24.10;;;19.30;;
66927;SDS011;59882;45.624;11.698;2023-08-17T03:53:08;21.10;;;18.80;;
66927;SDS011;59882;45.624;11.698;2023-08-17T03:55:33;20.80;;;18.75;;
66927;SDS011;59882;45.624;11.698;2023-08-17T03:57:59;19.43;;;17.57;;
66927;SDS011;59882;45.624;11.698;2023-08-17T04:00:25;20.93;;;19.03;;
66927;SDS011;59882;45.624;11.698;2023-08-17T04:02:50;21.48;;;19.15;;
66927;SDS011;59882;45.624;11.698;2023-08-17T04:05:16;22.90;;;20.47;;
66927;SDS011;59882;45.624;11.698;2023-08-17T04:07:41;23.27;;;20.90;;
66927;SDS011;59882;45.624;11.698;2023-08-17T04:10:08;23.47;;;20.37;;
66927;SDS011;59882;45.624;11.698;2023-08-17T04:12:33;22.95;;;20.48;;
66927;SDS011;59882;45.624;11.698;2023-08-17T04:14:59;23.60;;;21.15;;
66927;SDS011;59882;45.624;11.698;2023-08-17T04:17:25;22.03;;;19.70;;
66927;SDS011;59882;45.624;11.698;2023-08-17T04:19:51;20.63;;;18.50;;
66927;SDS011;59882;45.624;11.698;2023-08-17T04:22:17;21.30;;;19.27;;
66927;SDS011;59882;45.624;11.698;2023-08-17T04:24:42;20.87;;;18.77;;
66927;SDS011;59882;45.624;11.698;2023-08-17T04:27:08;22.70;;;18.90;;
66927;SDS011;59882;45.624;11.698;2023-08-17T04:29:33;20.08;;;18.05;;
66927;SDS011;59882;45.624;11.698;2023-08-17T04:31:59;19.63;;;17.63;;
66927;SDS011;59882;45.624;11.698;2023-08-17T04:34:25;21.35;;;19.05;;
66927;SDS011;59882;45.624;11.698;2023-08-17T04:36:50;20.20;;;18.07;;
66927;SDS011;59882;45.624;11.698;2023-08-17T04:39:16;23.87;;;21.20;;
66927;SDS011;59882;45.624;11.698;2023-08-17T04:41:42;20.92;;;18.90;;
66927;SDS011;59882;45.624;11.698;2023-08-17T04:44:08;22.80;;;18.27;;
66927;SDS011;59882;45.624;11.698;2023-08-17T04:46:33;24.43;;;21.13;;
66927;SDS011;59882;45.624;11.698;2023-08-17T04:48:59;23.70;;;21.27;;
66927;SDS011;59882;45.624;11.698;2023-08-17T04:51:25;23.60;;;21.30;;
66927;SDS011;59882;45.624;11.698;2023-08-17T04:53:51;23.60;;;21.13;;
66927;SDS011;59882;45.624;11.698;2023-08-17T04:56:17;24.53;;;22.03;;
66927;SDS011;59882;45.624;11.698;2023-08-17T04:58:42;24.92;;;22.15;;
66927;SDS011;59882;45.624;11.698;2023-08-17T05:01:08;22.50;;;20.30;;
66927;SDS011;59882;45.624;11.698;2023-08-17T05:03:34;25.85;;;23.17;;
66927;SDS011;59882;45.624;11.698;2023-08-17T05:05:59;23.50;;;21.20;;
66927;SDS011;59882;45.624;11.698;2023-08-17T05:08:25;24.30;;;21.88;;
66927;SDS011;59882;45.624;11.698;2023-08-17T05:10:51;23.50;;;21.03;;
66927;SDS011;59882;45.624;11.698;2023-08-17T05:13:16;25.53;;;23.03;;
66927;SDS011;59882;45.624;11.698;2023-08-17T05:15:42;25.73;;;23.20;;
66927;SDS011;59882;45.624;11.698;2023-08-17T05:18:07;31.03;;;24.83;;
66927;SDS011;59882;45.624;11.698;2023-08-17T05:20:33;28.00;;;24.40;;
66927;SDS011;59882;45.624;11.698;2023-08-17T05:22:59;26.17;;;23.60;;
66927;SDS011;59882;45.624;11.698;2023-08-17T05:25:24;25.97;;;22.30;;
66927;SDS011;59882;45.624;11.698;2023-08-17T05:27:51;25.40;;;22.93;;
66927;SDS011;59882;45.624;11.698;2023-08-17T05:30:17;27.33;;;24.50;;
66927;SDS011;59882;45.624;11.698;2023-08-17T05:32:43;24.90;;;22.13;;
66927;SDS011;59882;45.624;11.698;2023-08-17T05:35:08;29.50;;;25.23;;
66927;SDS011;59882;45.624;11.698;2023-08-17T05:37:34;25.58;;;22.90;;
66927;SDS011;59882;45.624;11.698;2023-08-17T05:40:00;30.10;;;24.83;;
66927;SDS011;59882;45.624;11.698;2023-08-17T05:42:25;28.17;;;23.27;;
66927;SDS011;59882;45.624;11.698;2023-08-17T05:44:51;23.02;;;20.35;;
66927;SDS011;59882;45.624;11.698;2023-08-17T05:47:16;28.50;;;24.63;;
66927;SDS011;59882;45.624;11.698;2023-08-17T05:49:44;25.55;;;21.77;;
66927;SDS011;59882;45.624;11.698;2023-08-17T05:52:10;23.70;;;18.58;;
66927;SDS011;59882;45.624;11.698;2023-08-17T05:54:37;20.15;;;18.15;;
66927;SDS011;59882;45.624;11.698;2023-08-17T05:57:03;21.83;;;17.73;;
66927;SDS011;59882;45.624;11.698;2023-08-17T05:59:29;17.52;;;15.93;;
66927;SDS011;59882;45.624;11.698;2023-08-17T06:01:54;18.20;;;16.07;;
66927;SDS011;59882;45.624;11.698;2023-08-17T06:04:20;18.50;;;15.70;;
66927;SDS011;59882;45.624;11.698;2023-08-17T06:06:46;19.03;;;17.07;;
66927;SDS011;59882;45.624;11.698;2023-08-17T06:09:11;19.85;;;17.40;;
66927;SDS011;59882;45.624;11.698;2023-08-17T06:11:37;18.87;;;16.57;;
66927;SDS011;59882;45.624;11.698;2023-08-17T06:14:03;21.92;;;16.45;;
66927;SDS011;59882;45.624;11.698;2023-08-17T06:16:29;20.08;;;17.98;;
66927;SDS011;59882;45.624;11.698;2023-08-17T06:18:55;18.57;;;16.67;;
66927;SDS011;59882;45.624;11.698;2023-08-17T06:21:20;20.45;;;16.20;;
66927;SDS011;59882;45.624;11.698;2023-08-17T06:23:46;18.27;;;16.30;;
66927;SDS011;59882;45.624;11.698;2023-08-17T06:26:12;17.17;;;15.37;;
66927;SDS011;59882;45.624;11.698;2023-08-17T06:28:37;16.03;;;12.93;;
66927;SDS011;59882;45.624;11.698;2023-08-17T06:31:04;20.42;;;16.25;;
66927;SDS011;59882;45.624;11.698;2023-08-17T06:33:29;20.97;;;15.40;;
66927;SDS011;59882;45.624;11.698;2023-08-17T06:35:55;15.05;;;13.40;;
66927;SDS011;59882;45.624;11.698;2023-08-17T06:38:20;14.83;;;13.03;;
66927;SDS011;59882;45.624;11.698;2023-08-17T06:40:46;14.27;;;12.87;;
66927;SDS011;59882;45.624;11.698;2023-08-17T06:43:12;16.77;;;14.67;;
66927;SDS011;59882;45.624;11.698;2023-08-17T06:45:38;18.67;;;13.70;;
66927;SDS011;59882;45.624;11.698;2023-08-17T06:48:04;16.53;;;14.40;;
66927;SDS011;59882;45.624;11.698;2023-08-17T06:50:30;17.15;;;13.23;;
66927;SDS011;59882;45.624;11.698;2023-08-17T06:52:56;17.50;;;13.93;;
66927;SDS011;59882;45.624;11.698;2023-08-17T06:55:21;16.37;;;14.77;;
66927;SDS011;59882;45.624;11.698;2023-08-17T06:57:47;16.60;;;14.47;;
66927;SDS011;59882;45.624;11.698;2023-08-17T07:00:16;20.60;;;14.65;;
66927;SDS011;59882;45.624;11.698;2023-08-17T07:02:45;16.27;;;13.35;;
66927;SDS011;59882;45.624;11.698;2023-08-17T07:05:12;15.98;;;14.27;;
66927;SDS011;59882;45.624;11.698;2023-08-17T07:07:39;27.95;;;15.45;;
66927;SDS011;59882;45.624;11.698;2023-08-17T07:10:04;18.97;;;14.37;;
66927;SDS011;59882;45.624;11.698;2023-08-17T07:12:32;16.25;;;13.70;;
66927;SDS011;59882;45.624;11.698;2023-08-17T07:14:58;16.73;;;14.98;;
66927;SDS011;59882;45.624;11.698;2023-08-17T07:17:23;14.50;;;12.17;;
66927;SDS011;59882;45.624;11.698;2023-08-17T07:19:49;13.83;;;11.13;;
66927;SDS011;59882;45.624;11.698;2023-08-17T07:22:14;12.97;;;11.40;;
66927;SDS011;59882;45.624;11.698;2023-08-17T07:24:41;15.60;;;12.30;;
66927;SDS011;59882;45.624;11.698;2023-08-17T07:27:07;13.53;;;11.17;;
66927;SDS011;59882;45.624;11.698;2023-08-17T07:29:33;11.87;;;10.63;;
66927;SDS011;59882;45.624;11.698;2023-08-17T07:31:58;12.77;;;11.47;;
66927;SDS011;59882;45.624;11.698;2023-08-17T07:34:27;13.13;;;11.35;;
66927;SDS011;59882;45.624;11.698;2023-08-17T07:36:53;11.70;;;10.52;;
66927;SDS011;59882;45.624;11.698;2023-08-17T07:39:19;13.17;;;10.63;;
66927;SDS011;59882;45.624;11.698;2023-08-17T07:41:45;13.70;;;11.45;;
66927;SDS011;59882;45.624;11.698;2023-08-17T07:44:10;11.73;;;10.53;;
66927;SDS011;59882;45.624;11.698;2023-08-17T07:46:36;11.82;;;10.63;;
66927;SDS011;59882;45.624;11.698;2023-08-17T07:49:02;12.40;;;10.00;;
66927;SDS011;59882;45.624;11.698;2023-08-17T07:51:28;10.30;;;9.30;;
66927;SDS011;59882;45.624;11.698;2023-08-17T07:53:55;9.77;;;8.57;;
66927;SDS011;59882;45.624;11.698;2023-08-17T07:56:21;8.90;;;7.87;;
66927;SDS011;59882;45.624;11.698;2023-08-17T07:58:46;10.15;;;8.98;;
66927;SDS011;59882;45.624;11.698;2023-08-17T08:01:12;12.70;;;8.80;;
66927;SDS011;59882;45.624;11.698;2023-08-17T08:03:38;10.97;;;8.60;;
66927;SDS011;59882;45.624;11.698;2023-08-17T08:06:03;10.87;;;8.37;;
66927;SDS011;59882;45.624;11.698;2023-08-17T08:08:29;9.23;;;7.63;;
66927;SDS011;59882;45.624;11.698;2023-08-17T08:10:54;9.05;;;7.82;;
66927;SDS011;59882;45.624;11.698;2023-08-17T08:13:20;12.30;;;8.00;;
66927;SDS011;59882;45.624;11.698;2023-08-17T08:15:46;9.93;;;7.85;;
66927;SDS011;59882;45.624;11.698;2023-08-17T08:18:11;10.57;;;8.10;;
66927;SDS011;59882;45.624;11.698;2023-08-17T08:20:37;11.40;;;8.27;;
66927;SDS011;59882;45.624;11.698;2023-08-17T08:23:03;10.10;;;8.07;;
66927;SDS011;59882;45.624;11.698;2023-08-17T08:25:28;9.40;;;8.40;;
66927;SDS011;59882;45.624;11.698;2023-08-17T08:27:54;13.27;;;8.77;;
66927;SDS011;59882;45.624;11.698;2023-08-17T08:30:20;11.33;;;8.30;;
66927;SDS011;59882;45.624;11.698;2023-08-17T08:32:45;10.50;;;8.32;;
66927;SDS011;59882;45.624;11.698;2023-08-17T08:35:11;10.87;;;9.23;;
66927;SDS011;59882;45.624;11.698;2023-08-17T08:37:36;12.63;;;9.27;;
66927;SDS011;59882;45.624;11.698;2023-08-17T08:40:02;10.55;;;9.45;;
66927;SDS011;59882;45.624;11.698;2023-08-17T08:42:28;12.50;;;9.38;;
66927;SDS011;59882;45.624;11.698;2023-08-17T08:44:54;9.83;;;8.63;;
66927;SDS011;59882;45.624;11.698;2023-08-17T08:47:20;10.02;;;7.82;;
66927;SDS011;59882;45.624;11.698;2023-08-17T08:49:50;10.75;;;8.85;;
66927;SDS011;59882;45.624;11.698;2023-08-17T08:53:01;9.37;;;8.13;;
66927;SDS011;59882;45.624;11.698;2023-08-17T08:55:29;10.50;;;7.88;;
66927;SDS011;59882;45.624;11.698;2023-08-17T08:57:59;13.85;;;9.82;;
66927;SDS011;59882;45.624;11.698;2023-08-17T09:00:25;12.57;;;9.30;;
66927;SDS011;59882;45.624;11.698;2023-08-17T09:02:51;9.60;;;8.60;;
66927;SDS011;59882;45.624;11.698;2023-08-17T09:05:18;12.73;;;9.03;;
66927;SDS011;59882;45.624;11.698;2023-08-17T09:07:44;11.55;;;9.43;;
66927;SDS011;59882;45.624;11.698;2023-08-17T09:10:13;11.30;;;9.23;;
66927;SDS011;59882;45.624;11.698;2023-08-17T09:12:41;12.00;;;9.20;;
66927;SDS011;59882;45.624;11.698;2023-08-17T09:15:07;10.80;;;8.70;;
66927;SDS011;59882;45.624;11.698;2023-08-17T09:17:33;9.43;;;8.23;;
66927;SDS011;59882;45.624;11.698;2023-08-17T09:20:02;13.40;;;8.40;;
66927;SDS011;59882;45.624;11.698;2023-08-17T09:22:41;10.13;;;9.10;;
66927;SDS011;59882;45.624;11.698;2023-08-17T09:25:09;9.97;;;8.60;;
66927;SDS011;59882;45.624;11.698;2023-08-17T09:27:36;9.88;;;8.82;;
66927;SDS011;59882;45.624;11.698;2023-08-17T09:30:04;11.18;;;8.50;;
66927;SDS011;59882;45.624;11.698;2023-08-17T09:32:31;9.77;;;8.35;;
66927;SDS011;59882;45.624;11.698;2023-08-17T09:34:57;12.52;;;8.18;;
66927;SDS011;59882;45.624;11.698;2023-08-17T09:37:26;9.37;;;7.93;;
66927;SDS011;59882;45.624;11.698;2023-08-17T09:39:53;9.88;;;8.60;;
66927;SDS011;59882;45.624;11.698;2023-08-17T09:42:20;10.52;;;6.95;;
66927;SDS011;59882;45.624;11.698;2023-08-17T09:44:47;9.00;;;8.10;;
66927;SDS011;59882;45.624;11.698;2023-08-17T09:47:14;11.02;;;8.32;;
66927;SDS011;59882;45.624;11.698;2023-08-17T09:49:40;10.90;;;8.63;;
66927;SDS011;59882;45.624;11.698;2023-08-17T09:52:06;11.60;;;9.00;;
66927;SDS011;59882;45.624;11.698;2023-08-17T09:54:32;13.03;;;8.33;;
66927;SDS011;59882;45.624;11.698;2023-08-17T09:56:58;10.60;;;8.88;;
66927;SDS011;59882;45.624;11.698;2023-08-17T09:59:23;12.60;;;8.53;;
66927;SDS011;59882;45.624;11.698;2023-08-17T10:01:50;9.23;;;8.13;;
66927;SDS011;59882;45.624;11.698;2023-08-17T10:04:19;10.10;;;8.93;;
66927;SDS011;59882;45.624;11.698;2023-08-17T10:06:51;8.02;;;7.07;;
66927;SDS011;59882;45.624;11.698;2023-08-17T10:09:23;10.38;;;8.35;;
66927;SDS011;59882;45.624;11.698;2023-08-17T10:11:54;11.83;;;8.27;;
66927;SDS011;59882;45.624;11.698;2023-08-17T10:14:23;10.73;;;8.52;;
66927;SDS011;59882;45.624;11.698;2023-08-17T10:17:01;11.52;;;7.53;;
66927;SDS011;59882;45.624;11.698;2023-08-17T10:19:51;9.05;;;8.02;;
66927;SDS011;59882;45.624;11.698;2023-08-17T10:23:04;8.45;;;7.32;;
66927;SDS011;59882;45.624;11.698;2023-08-17T10:25:17;10.77;;;8.77;;
66927;SDS011;59882;45.624;11.698;2023-08-17T10:27:45;8.45;;;7.55;;
66927;SDS011;59882;45.624;11.698;2023-08-17T10:30:11;10.15;;;8.30;;
66927;SDS011;59882;45.624;11.698;2023-08-17T10:32:37;10.60;;;8.45;;
66927;SDS011;59882;45.624;11.698;2023-08-17T10:35:04;8.73;;;7.83;;
66927;SDS011;59882;45.624;11.698;2023-08-17T10:37:31;10.20;;;7.75;;
66927;SDS011;59882;45.624;11.698;2023-08-17T10:39:57;9.30;;;8.27;;
66927;SDS011;59882;45.624;11.698;2023-08-17T10:42:29;10.10;;;8.40;;
66927;SDS011;59882;45.624;11.698;2023-08-17T10:44:57;10.40;;;8.00;;
66927;SDS011;59882;45.624;11.698;2023-08-17T10:49:51;11.67;;;8.03;;
66927;SDS011;59882;45.624;11.698;2023-08-17T10:54:54;9.00;;;8.10;;
66927;SDS011;59882;45.624;11.698;2023-08-17T10:57:24;10.05;;;7.88;;
66927;SDS011;59882;45.624;11.698;2023-08-17T11:02:39;9.85;;;8.85;;
66927;SDS011;59882;45.624;11.698;2023-08-17T11:05:05;9.25;;;7.75;;
66927;SDS011;59882;45.624;11.698;2023-08-17T11:07:38;10.35;;;7.68;;
66927;SDS011;59882;45.624;11.698;2023-08-17T11:10:38;11.70;;;8.65;;
66927;SDS011;59882;45.624;11.698;2023-08-17T11:12:57;9.50;;;7.83;;
66927;SDS011;59882;45.624;11.698;2023-08-17T11:15:40;11.23;;;8.02;;
66927;SDS011;59882;45.624;11.698;2023-08-17T11:18:10;10.43;;;8.73;;
66927;SDS011;59882;45.624;11.698;2023-08-17T11:20:38;10.93;;;7.47;;
66927;SDS011;59882;45.624;11.698;2023-08-17T11:23:05;8.43;;;7.20;;
66927;SDS011;59882;45.624;11.698;2023-08-17T11:25:32;10.63;;;8.40;;
66927;SDS011;59882;45.624;11.698;2023-08-17T11:27:59;10.48;;;7.93;;
66927;SDS011;59882;45.624;11.698;2023-08-17T11:30:25;12.18;;;7.35;;
66927;SDS011;59882;45.624;11.698;2023-08-17T11:32:53;10.70;;;7.47;;
66927;SDS011;59882;45.624;11.698;2023-08-17T11:35:19;9.85;;;7.80;;
66927;SDS011;59882;45.624;11.698;2023-08-17T11:37:46;10.53;;;8.00;;
66927;SDS011;59882;45.624;11.698;2023-08-17T11:40:13;12.27;;;8.40;;
66927;SDS011;59882;45.624;11.698;2023-08-17T11:42:40;9.63;;;8.15;;
66927;SDS011;59882;45.624;11.698;2023-08-17T11:45:06;11.02;;;8.50;;
66927;SDS011;59882;45.624;11.698;2023-08-17T11:47:35;11.57;;;7.90;;
66927;SDS011;59882;45.624;11.698;2023-08-17T11:50:05;11.13;;;8.23;;
66927;SDS011;59882;45.624;11.698;2023-08-17T11:52:33;10.85;;;8.43;;
66927;SDS011;59882;45.624;11.698;2023-08-17T11:54:59;11.00;;;8.63;;
66927;SDS011;59882;45.624;11.698;2023-08-17T11:57:25;11.57;;;8.40;;
66927;SDS011;59882;45.624;11.698;2023-08-17T11:59:54;9.60;;;8.60;;
66927;SDS011;59882;45.624;11.698;2023-08-17T12:02:22;8.10;;;7.30;;
66927;SDS011;59882;45.624;11.698;2023-08-17T12:04:49;9.35;;;8.05;;
66927;SDS011;59882;45.624;11.698;2023-08-17T12:07:18;8.55;;;7.65;;
66927;SDS011;59882;45.624;11.698;2023-08-17T12:09:47;8.10;;;7.30;;
66927;SDS011;59882;45.624;11.698;2023-08-17T12:12:17;9.48;;;8.30;;
66927;SDS011;59882;45.624;11.698;2023-08-17T12:14:44;10.98;;;8.00;;
66927;SDS011;59882;45.624;11.698;2023-08-17T12:17:15;8.80;;;7.90;;
66927;SDS011;59882;45.624;11.698;2023-08-17T12:19:41;10.23;;;7.85;;
66927;SDS011;59882;45.624;11.698;2023-08-17T12:22:07;10.30;;;8.83;;
66927;SDS011;59882;45.624;11.698;2023-08-17T12:24:33;10.45;;;8.70;;
66927;SDS011;59882;45.624;11.698;2023-08-17T12:27:01;10.60;;;8.57;;
66927;SDS011;59882;45.624;11.698;2023-08-17T12:29:27;9.82;;;8.40;;
66927;SDS011;59882;45.624;11.698;2023-08-17T12:31:53;12.73;;;8.33;;
66927;SDS011;59882;45.624;11.698;2023-08-17T12:34:21;12.93;;;7.88;;
66927;SDS011;59882;45.624;11.698;2023-08-17T12:36:48;9.05;;;8.15;;
66927;SDS011;59882;45.624;11.698;2023-08-17T12:39:14;11.27;;;8.10;;
66927;SDS011;59882;45.624;11.698;2023-08-17T12:41:40;8.55;;;7.10;;
66927;SDS011;59882;45.624;11.698;2023-08-17T12:44:05;10.43;;;7.90;;
66927;SDS011;59882;45.624;11.698;2023-08-17T12:46:31;9.15;;;8.18;;
66927;SDS011;59882;45.624;11.698;2023-08-17T12:48:58;10.17;;;7.60;;
66927;SDS011;59882;45.624;11.698;2023-08-17T12:51:24;10.05;;;7.68;;
66927;SDS011;59882;45.624;11.698;2023-08-17T12:53:49;9.20;;;8.27;;
66927;SDS011;59882;45.624;11.698;2023-08-17T12:56:15;9.70;;;7.33;;
66927;SDS011;59882;45.624;11.698;2023-08-17T12:58:41;8.05;;;6.57;;
66927;SDS011;59882;45.624;11.698;2023-08-17T13:01:07;10.00;;;7.20;;
66927;SDS011;59882;45.624;11.698;2023-08-17T13:03:32;9.43;;;7.82;;
66927;SDS011;59882;45.624;11.698;2023-08-17T13:05:58;11.67;;;8.03;;
66927;SDS011;59882;45.624;11.698;2023-08-17T13:08:24;8.35;;;7.50;;
66927;SDS011;59882;45.624;11.698;2023-08-17T13:10:49;8.88;;;7.40;;
66927;SDS011;59882;45.624;11.698;2023-08-17T13:13:15;10.37;;;7.70;;
66927;SDS011;59882;45.624;11.698;2023-08-17T13:15:41;8.63;;;7.93;;
66927;SDS011;59882;45.624;11.698;2023-08-17T13:18:07;8.77;;;7.97;;
66927;SDS011;59882;45.624;11.698;2023-08-17T13:20:33;8.90;;;8.07;;
66927;SDS011;59882;45.624;11.698;2023-08-17T13:22:58;13.90;;;8.63;;
66927;SDS011;59882;45.624;11.698;2023-08-17T13:25:24;8.73;;;7.75;;
66927;SDS011;59882;45.624;11.698;2023-08-17T13:27:50;8.77;;;7.97;;
66927;SDS011;59882;45.624;11.698;2023-08-17T13:30:16;9.23;;;8.25;;
66927;SDS011;59882;45.624;11.698;2023-08-17T13:32:41;8.57;;;7.70;;
66927;SDS011;59882;45.624;11.698;2023-08-17T13:35:07;8.38;;;7.68;;
66927;SDS011;59882;45.624;11.698;2023-08-17T13:37:33;9.00;;;7.05;;
66927;SDS011;59882;45.624;11.698;2023-08-17T13:40:01;8.82;;;8.13;;
66927;SDS011;59882;45.624;11.698;2023-08-17T13:42:27;8.52;;;7.70;;
66927;SDS011;59882;45.624;11.698;2023-08-17T13:44:53;9.30;;;8.40;;
66927;SDS011;59882;45.624;11.698;2023-08-17T13:47:18;11.32;;;8.43;;
66927;SDS011;59882;45.624;11.698;2023-08-17T13:49:44;8.27;;;7.40;;
66927;SDS011;59882;45.624;11.698;2023-08-17T13:52:10;9.57;;;8.55;;
66927;SDS011;59882;45.624;11.698;2023-08-17T13:54:36;8.90;;;7.80;;
66927;SDS011;59882;45.624;11.698;2023-08-17T13:57:01;8.00;;;7.30;;
66927;SDS011;59882;45.624;11.698;2023-08-17T13:59:27;10.47;;;8.00;;
66927;SDS011;59882;45.624;11.698;2023-08-17T14:01:54;8.63;;;7.93;;
66927;SDS011;59882;45.624;11.698;2023-08-17T14:04:21;8.57;;;7.78;;
66927;SDS011;59882;45.624;11.698;2023-08-17T14:06:47;8.68;;;7.95;;
66927;SDS011;59882;45.624;11.698;2023-08-17T14:09:13;9.35;;;8.43;;
66927;SDS011;59882;45.624;11.698;2023-08-17T14:11:38;8.70;;;7.97;;
66927;SDS011;59882;45.624;11.698;2023-08-17T14:14:04;8.98;;;8.25;;
66927;SDS011;59882;45.624;11.698;2023-08-17T14:16:30;8.80;;;8.00;;
66927;SDS011;59882;45.624;11.698;2023-08-17T14:18:56;8.80;;;7.95;;
66927;SDS011;59882;45.624;11.698;2023-08-17T14:21:21;9.93;;;8.60;;
66927;SDS011;59882;45.624;11.698;2023-08-17T14:23:47;9.40;;;8.50;;
66927;SDS011;59882;45.624;11.698;2023-08-17T14:26:12;9.30;;;8.38;;
66927;SDS011;59882;45.624;11.698;2023-08-17T14:28:38;9.23;;;8.43;;